createdAt,value
2019-02-10T00:00:42.565Z,99830.00
2019-02-10T00:03:13.078Z,99826.00
2019-02-10T00:05:43.566Z,99825.00
2019-02-10T00:08:16.993Z,99826.00
2019-02-10T00:10:47.452Z,99820.00
2019-02-10T00:13:32.460Z,99825.00
2019-02-10T00:16:05.218Z,99826.00
2019-02-10T00:18:35.529Z,99817.00
2019-02-10T00:21:06.027Z,99827.00
2019-02-10T00:23:36.432Z,99829.00
2019-02-10T00:26:07.259Z,99827.00
2019-02-10T00:28:37.565Z,99822.00
2019-02-10T00:31:07.921Z,99820.00
2019-02-10T00:33:39.863Z,99826.00
2019-02-10T00:36:10.245Z,99812.00
2019-02-10T00:38:40.560Z,99809.00
2019-02-10T00:41:10.871Z,99826.00
2019-02-10T00:43:41.332Z,99802.00
2019-02-10T00:46:14.976Z,99797.00
2019-02-10T00:48:45.577Z,99798.00
2019-02-10T00:51:15.928Z,99800.00
2019-02-10T00:53:46.253Z,99786.00
2019-02-10T00:56:16.579Z,99787.00
2019-02-10T00:58:46.929Z,99787.00
2019-02-10T01:01:17.320Z,99788.00
2019-02-10T01:03:47.926Z,99796.00
2019-02-10T01:06:18.242Z,99782.00
2019-02-10T01:08:48.588Z,99773.00
2019-02-10T01:11:18.860Z,99783.00
2019-02-10T01:13:49.199Z,99772.00
2019-02-10T01:16:19.622Z,99775.00
2019-02-10T01:19:11.328Z,99769.00
2019-02-10T01:21:46.095Z,99768.00
2019-02-10T01:24:16.436Z,99769.00
2019-02-10T01:26:46.861Z,99763.00
2019-02-10T01:29:17.186Z,99758.00
2019-02-10T01:31:48.543Z,99763.00
2019-02-10T01:34:18.798Z,99757.00
2019-02-10T01:36:50.025Z,99748.00
2019-02-10T01:39:21.736Z,99741.00
2019-02-10T01:41:52.145Z,99744.00
2019-02-10T01:44:22.456Z,99743.00
2019-02-10T01:46:52.801Z,99741.00
2019-02-10T01:49:23.055Z,99733.00
2019-02-10T01:51:53.288Z,99732.00
2019-02-10T01:54:23.683Z,99711.00
2019-02-10T01:56:57.042Z,99712.00
2019-02-10T01:59:27.413Z,99709.00
2019-02-10T02:01:57.734Z,99710.00
2019-02-10T02:04:28.156Z,99703.00
2019-02-10T02:06:58.419Z,99698.00
2019-02-10T02:09:28.705Z,99692.00
2019-02-10T02:11:59.291Z,99678.00
2019-02-10T02:14:29.492Z,99671.00
2019-02-10T02:16:59.799Z,99662.00
2019-02-10T02:19:30.070Z,99648.00
2019-02-10T02:22:00.460Z,99649.00
2019-02-10T02:24:30.758Z,99634.00
2019-02-10T02:27:01.206Z,99635.00
2019-02-10T02:29:31.466Z,99647.00
2019-02-10T02:32:01.892Z,99638.00
2019-02-10T02:34:32.191Z,99617.00
2019-02-10T02:37:08.091Z,99617.00
2019-02-10T02:39:34.964Z,99612.00
2019-02-10T02:42:05.258Z,99619.00
2019-02-10T02:44:35.556Z,99614.00
2019-02-10T02:47:05.944Z,99612.00
2019-02-10T02:49:36.235Z,99611.00
2019-02-10T02:52:06.551Z,99614.00
2019-02-10T02:54:36.875Z,99601.00
2019-02-10T02:57:07.292Z,99587.00
2019-02-10T02:59:37.766Z,99594.00
2019-02-10T03:02:08.166Z,99575.00
2019-02-10T03:04:38.540Z,99582.00
2019-02-10T03:07:17.839Z,99583.00
2019-02-10T03:09:41.286Z,99579.00
2019-02-10T03:12:11.579Z,99573.00
2019-02-10T03:14:41.898Z,99574.00
2019-02-10T03:17:12.202Z,99564.00
2019-02-10T03:19:42.562Z,99565.00
2019-02-10T03:22:13.004Z,99573.00
2019-02-10T03:24:43.298Z,99557.00
2019-02-10T03:27:13.714Z,99547.00
2019-02-10T03:29:45.568Z,99546.00
2019-02-10T03:32:15.826Z,99543.00
2019-02-10T03:34:46.171Z,99535.00
2019-02-10T03:37:16.576Z,99536.00
2019-02-10T03:39:46.908Z,99527.00
2019-02-10T03:42:17.393Z,99522.00
2019-02-10T03:44:47.776Z,99528.00
2019-02-10T03:47:22.145Z,99522.00
2019-02-10T03:49:55.835Z,99513.00
2019-02-10T03:52:26.205Z,99500.00
2019-02-10T03:54:57.745Z,99501.00
2019-02-10T03:57:28.165Z,99487.00
2019-02-10T03:59:58.588Z,99487.00
2019-02-10T04:02:30.820Z,99482.00
2019-02-10T04:05:01.150Z,99472.00
2019-02-10T04:07:36.080Z,99459.00
2019-02-10T04:10:03.569Z,99466.00
2019-02-10T04:12:33.860Z,99464.00
2019-02-10T04:15:04.405Z,99459.00
2019-02-10T04:17:34.722Z,99452.00
2019-02-10T04:20:05.326Z,99448.00
2019-02-10T04:22:35.538Z,99435.00
2019-02-10T04:25:05.980Z,99436.00
2019-02-10T04:27:36.285Z,99425.00
2019-02-10T04:30:06.893Z,99429.00
2019-02-10T04:32:37.256Z,99421.00
2019-02-10T04:35:07.576Z,99415.00
2019-02-10T04:37:45.443Z,99408.00
2019-02-10T04:40:09.998Z,99403.00
2019-02-10T04:42:40.392Z,99396.00
2019-02-10T04:45:10.744Z,99384.00
2019-02-10T04:47:41.101Z,99374.00
2019-02-10T04:50:11.526Z,99375.00
2019-02-10T04:52:43.819Z,99375.00
2019-02-10T04:55:14.146Z,99379.00
2019-02-10T04:57:44.445Z,99364.00
2019-02-10T05:00:14.641Z,99358.00
2019-02-10T05:02:44.911Z,99343.00
2019-02-10T05:05:15.424Z,99349.00
2019-02-10T05:07:54.114Z,99348.00
2019-02-10T05:10:17.597Z,99330.00
2019-02-10T05:12:47.875Z,99323.00
2019-02-10T05:15:18.256Z,99344.00
2019-02-10T05:17:48.575Z,99334.00
2019-02-10T05:20:20.884Z,99331.00
2019-02-10T05:22:51.290Z,99329.00
2019-02-10T05:25:21.664Z,99325.00
2019-02-10T05:27:51.991Z,99312.00
2019-02-10T05:30:22.429Z,99307.00
2019-02-10T05:32:52.747Z,99298.00
2019-02-10T05:35:23.048Z,99286.00
2019-02-10T05:37:53.366Z,99280.00
2019-02-10T05:40:23.755Z,99275.00
2019-02-10T05:42:54.177Z,99265.00
2019-02-10T05:45:24.541Z,99264.00
2019-02-10T05:47:54.897Z,99255.00
2019-02-10T05:50:25.313Z,99243.00
2019-02-10T05:52:55.679Z,99241.00
2019-02-10T05:55:26.114Z,99238.00
2019-02-10T05:57:56.491Z,99227.00
2019-02-10T06:00:27.675Z,99218.00
2019-02-10T06:02:58.094Z,99217.00
2019-02-10T06:05:29.698Z,99205.00
2019-02-10T06:08:00.147Z,99192.00
2019-02-10T06:10:30.767Z,99195.00
2019-02-10T06:13:01.155Z,99183.00
2019-02-10T06:15:31.552Z,99165.00
2019-02-10T06:18:01.861Z,99170.00
2019-02-10T06:20:32.284Z,99158.00
2019-02-10T06:23:02.558Z,99157.00
2019-02-10T06:25:32.761Z,99147.00
2019-02-10T06:28:02.971Z,99140.00
2019-02-10T06:30:33.112Z,99117.00
2019-02-10T06:33:03.360Z,99126.00
2019-02-10T06:35:33.563Z,99121.00
2019-02-10T06:38:05.048Z,99110.00
2019-02-10T06:40:35.250Z,99105.00
2019-02-10T06:43:05.505Z,99112.00
2019-02-10T06:45:35.645Z,99096.00
2019-02-10T06:48:08.261Z,99083.00
2019-02-10T06:50:38.495Z,99080.00
2019-02-10T06:53:08.736Z,99078.00
2019-02-10T06:55:38.971Z,99059.00
2019-02-10T06:58:09.142Z,99058.00
2019-02-10T07:00:46.301Z,99043.00
2019-02-10T07:03:52.304Z,99042.00
2019-02-10T07:06:24.085Z,99039.00
2019-02-10T07:08:54.357Z,99016.00
2019-02-10T07:11:24.581Z,99014.00
2019-02-10T07:14:02.202Z,99005.00
2019-02-10T07:17:20.798Z,99007.00
2019-02-10T07:20:50.477Z,98981.00
2019-02-10T07:23:57.979Z,98974.00
2019-02-10T07:26:55.917Z,98956.00
2019-02-10T07:30:03.418Z,98934.00
2019-02-10T07:32:52.525Z,98941.00
2019-02-10T07:36:03.021Z,98923.00
2019-02-10T07:39:09.723Z,98914.00
2019-02-10T07:42:12.231Z,98899.00
2019-02-10T07:45:12.615Z,98877.00
2019-02-10T07:48:24.864Z,98877.00
2019-02-10T07:51:32.416Z,98863.00
2019-02-10T07:54:48.038Z,98848.00
2019-02-10T07:57:58.166Z,98836.00
2019-02-10T08:01:00.869Z,98828.00
2019-02-10T08:04:13.304Z,98802.00
2019-02-10T08:07:12.491Z,98791.00
2019-02-10T08:10:01.860Z,98783.00
2019-02-10T08:12:54.878Z,98761.00
2019-02-10T08:16:06.274Z,98772.00
2019-02-10T08:19:44.784Z,98757.00
2019-02-10T08:22:45.150Z,98746.00
2019-02-10T08:26:08.518Z,98732.00
2019-02-10T08:29:22.325Z,98723.00
2019-02-10T08:32:42.665Z,98707.00
2019-02-10T08:35:51.010Z,98695.00
2019-02-10T08:38:54.523Z,98692.00
2019-02-10T08:42:11.088Z,98684.00
2019-02-10T08:45:22.643Z,98678.00
2019-02-10T08:48:11.021Z,98666.00
2019-02-10T08:51:04.700Z,98658.00
2019-02-10T08:53:39.171Z,98654.00
2019-02-10T08:56:09.858Z,98642.00
2019-02-10T08:58:40.434Z,98619.00
2019-02-10T09:01:10.930Z,98608.00
2019-02-10T09:03:41.561Z,98602.00
2019-02-10T09:06:12.166Z,98594.00
2019-02-10T09:08:42.932Z,98597.00
2019-02-10T09:11:13.427Z,98586.00
2019-02-10T09:13:44.028Z,98592.00
2019-02-10T09:16:14.682Z,98570.00
2019-02-10T09:18:45.152Z,98568.00
2019-02-10T09:21:15.686Z,98558.00
2019-02-10T09:23:46.026Z,98550.00
2019-02-10T09:26:16.813Z,98552.00
2019-02-10T09:28:47.380Z,98528.00
2019-02-10T09:31:18.077Z,98513.00
2019-02-10T09:33:48.968Z,98507.00
2019-02-10T09:36:19.718Z,98498.00
2019-02-10T09:38:50.289Z,98495.00
2019-02-10T09:41:20.989Z,98480.00
2019-02-10T09:43:51.640Z,98479.00
2019-02-10T09:46:22.263Z,98466.00
2019-02-10T09:48:52.704Z,98463.00
2019-02-10T09:51:23.348Z,98453.00
2019-02-10T09:53:54.030Z,98450.00
2019-02-10T09:56:24.746Z,98438.00
2019-02-10T09:58:55.388Z,98436.00
2019-02-10T10:01:26.270Z,98426.00
2019-02-10T10:03:57.218Z,98422.00
2019-02-10T10:06:27.709Z,98418.00
2019-02-10T10:08:58.369Z,98402.00
2019-02-10T10:11:28.814Z,98405.00
2019-02-10T10:13:59.620Z,98399.00
2019-02-10T10:16:30.254Z,98391.00
2019-02-10T10:19:00.965Z,98379.00
2019-02-10T10:21:31.645Z,98376.00
2019-02-10T10:24:02.376Z,98375.00
2019-02-10T10:26:32.988Z,98374.00
2019-02-10T10:29:03.512Z,98373.00
2019-02-10T10:31:34.150Z,98360.00
2019-02-10T10:34:04.778Z,98372.00
2019-02-10T10:36:36.534Z,98341.00
2019-02-10T10:39:07.948Z,98343.00
2019-02-10T10:41:38.600Z,98340.00
2019-02-10T10:44:09.264Z,98330.00
2019-02-10T10:46:39.836Z,98333.00
2019-02-10T10:49:10.511Z,98336.00
2019-02-10T10:51:41.024Z,98302.00
2019-02-10T10:54:11.604Z,98303.00
2019-02-10T10:56:43.534Z,98311.00
2019-02-10T10:59:14.394Z,98301.00
2019-02-10T11:01:45.297Z,98289.00
2019-02-10T11:04:16.248Z,98289.00
2019-02-10T11:06:46.910Z,98287.00
2019-02-10T11:09:17.520Z,98273.00
2019-02-10T11:11:52.698Z,98274.00
2019-02-10T11:14:24.866Z,98271.00
2019-02-10T11:16:55.543Z,98251.00
2019-02-10T11:19:25.971Z,98258.00
2019-02-10T11:21:56.795Z,98240.00
2019-02-10T11:24:28.691Z,98233.00
2019-02-10T11:26:59.668Z,98225.00
2019-02-10T11:29:30.262Z,98224.00
2019-02-10T11:32:00.994Z,98221.00
2019-02-10T11:34:31.596Z,98194.00
2019-02-10T11:37:02.073Z,98201.00
2019-02-10T11:39:32.654Z,98223.00
2019-02-10T11:42:03.205Z,98190.00
2019-02-10T11:44:33.598Z,98187.00
2019-02-10T11:47:04.180Z,98185.00
2019-02-10T11:49:34.703Z,98183.00
2019-02-10T11:52:05.358Z,98184.00
2019-02-10T11:54:35.892Z,98190.00
2019-02-10T11:57:07.336Z,98161.00
2019-02-10T11:59:37.915Z,98174.00
2019-02-10T12:02:08.516Z,98173.00
2019-02-10T12:04:39.016Z,98167.00
2019-02-10T12:07:09.697Z,98168.00
2019-02-10T12:09:40.228Z,98159.00
2019-02-10T12:12:10.894Z,98154.00
2019-02-10T12:14:41.645Z,98147.00
2019-02-10T12:17:12.170Z,98145.00
2019-02-10T12:19:42.725Z,98142.00
2019-02-10T12:22:13.517Z,98147.00
2019-02-10T12:24:43.983Z,98142.00
2019-02-10T12:27:14.652Z,98123.00
2019-02-10T12:29:45.201Z,98127.00
2019-02-10T12:32:15.641Z,98124.00
2019-02-10T12:34:46.065Z,98122.00
2019-02-10T12:37:16.555Z,98127.00
2019-02-10T12:39:47.217Z,98132.00
2019-02-10T12:42:17.597Z,98122.00
2019-02-10T12:44:48.083Z,98099.00
2019-02-10T12:47:18.434Z,98120.00
2019-02-10T12:49:49.013Z,98116.00
2019-02-10T12:52:19.649Z,98098.00
2019-02-10T12:54:50.170Z,98102.00
2019-02-10T12:57:20.599Z,98092.00
2019-02-10T12:59:50.913Z,98085.00
2019-02-10T13:02:21.785Z,98091.00
2019-02-10T13:04:52.221Z,98091.00
2019-02-10T13:07:22.846Z,98092.00
2019-02-10T13:09:53.494Z,98083.00
2019-02-10T13:12:24.000Z,98089.00
2019-02-10T13:14:54.499Z,98088.00
2019-02-10T13:17:25.195Z,98072.00
2019-02-10T13:19:58.675Z,98077.00
2019-02-10T13:22:29.293Z,98068.00
2019-02-10T13:24:59.797Z,98059.00
2019-02-10T13:27:30.439Z,98059.00
2019-02-10T13:30:02.151Z,98063.00
2019-02-10T13:32:32.636Z,98048.00
2019-02-10T13:35:03.055Z,98047.00
2019-02-10T13:37:33.375Z,98041.00
2019-02-10T13:40:05.324Z,98045.00
2019-02-10T13:42:37.651Z,98044.00
2019-02-10T13:45:11.007Z,98041.00
2019-02-10T13:47:43.282Z,98031.00
2019-02-10T13:50:15.469Z,98036.00
2019-02-10T13:52:45.991Z,98031.00
2019-02-10T13:55:16.663Z,98027.00
2019-02-10T13:57:47.381Z,98017.00
2019-02-10T14:00:19.117Z,98017.00
2019-02-10T14:02:49.603Z,98026.00
2019-02-10T14:05:20.046Z,98008.00
2019-02-10T14:07:52.143Z,98009.00
2019-02-10T14:10:25.572Z,98000.00
2019-02-10T14:12:57.325Z,98008.00
2019-02-10T14:15:27.882Z,98011.00
2019-02-10T14:17:58.415Z,98011.00
2019-02-10T14:20:29.073Z,98001.00
2019-02-10T14:22:59.694Z,98001.00
2019-02-10T14:25:30.080Z,98000.00
2019-02-10T14:28:00.609Z,98001.00
2019-02-10T14:30:30.964Z,98008.00
2019-02-10T14:33:01.512Z,98006.00
2019-02-10T14:35:31.922Z,98001.00
2019-02-10T14:38:02.532Z,98008.00
2019-02-10T14:40:34.005Z,98014.00
2019-02-10T14:43:05.174Z,98006.00
2019-02-10T14:45:35.718Z,97999.00
2019-02-10T14:48:06.121Z,98005.00
2019-02-10T14:50:36.610Z,98025.00
2019-02-10T14:53:07.307Z,98015.00
2019-02-10T14:55:38.832Z,98016.00
2019-02-10T14:58:09.547Z,98022.00
2019-02-10T15:00:40.207Z,98025.00
2019-02-10T15:03:10.748Z,98021.00
2019-02-10T15:05:47.423Z,98021.00
2019-02-10T15:08:18.797Z,98026.00
2019-02-10T15:10:49.583Z,98027.00
2019-02-10T15:13:20.212Z,98030.00
2019-02-10T15:15:50.868Z,98026.00
2019-02-10T15:18:21.490Z,98025.00
2019-02-10T15:20:52.075Z,98033.00
2019-02-10T15:23:24.075Z,98031.00
2019-02-10T15:25:54.739Z,98034.00
2019-02-10T15:28:30.944Z,98032.00
2019-02-10T15:31:01.498Z,98032.00
2019-02-10T15:33:32.061Z,98036.00
2019-02-10T15:36:02.638Z,98040.00
2019-02-10T15:38:33.087Z,98036.00
2019-02-10T15:41:03.494Z,98021.00
2019-02-10T15:43:34.054Z,98030.00
2019-02-10T15:46:04.650Z,98022.00
2019-02-10T15:48:35.046Z,98029.00
2019-02-10T15:51:05.520Z,98033.00
2019-02-10T15:53:35.933Z,98033.00
2019-02-10T15:56:06.346Z,98037.00
2019-02-10T15:58:36.796Z,98033.00
2019-02-10T16:01:07.352Z,98046.00
2019-02-10T16:03:39.142Z,98058.00
2019-02-10T16:06:09.596Z,98039.00
2019-02-10T16:08:40.233Z,98049.00
2019-02-10T16:11:10.898Z,98050.00
2019-02-10T16:13:41.351Z,98046.00
2019-02-10T16:16:11.816Z,98045.00
2019-02-10T16:18:42.156Z,98043.00
2019-02-10T16:21:12.684Z,98048.00
2019-02-10T16:23:43.112Z,98055.00
2019-02-10T16:26:13.250Z,98051.00
2019-02-10T16:28:45.756Z,98062.00
2019-02-10T16:31:15.902Z,98059.00
2019-02-10T16:33:46.182Z,98048.00
2019-02-10T16:36:16.798Z,98057.00
2019-02-10T16:38:47.033Z,98049.00
2019-02-10T16:41:17.304Z,98055.00
2019-02-10T16:43:47.572Z,98065.00
2019-02-10T16:46:17.879Z,98066.00
2019-02-10T16:48:48.255Z,98068.00
2019-02-10T16:51:18.644Z,98067.00
2019-02-10T16:53:48.954Z,98072.00
2019-02-10T16:56:19.343Z,98063.00
2019-02-10T16:58:49.619Z,98062.00
2019-02-10T17:01:19.955Z,98068.00
2019-02-10T17:03:50.266Z,98064.00
2019-02-10T17:06:20.584Z,98072.00
2019-02-10T17:08:50.961Z,98070.00
2019-02-10T17:11:21.324Z,98079.00
2019-02-10T17:13:51.916Z,98082.00
2019-02-10T17:16:22.314Z,98082.00
2019-02-10T17:18:52.678Z,98086.00
2019-02-10T17:21:23.019Z,98077.00
2019-02-10T17:23:53.355Z,98083.00
2019-02-10T17:26:23.688Z,98084.00
2019-02-10T17:28:54.095Z,98088.00
2019-02-10T17:31:24.550Z,98087.00
2019-02-10T17:33:54.914Z,98082.00
2019-02-10T17:36:25.432Z,98094.00
2019-02-10T17:38:55.856Z,98091.00
2019-02-10T17:41:46.391Z,98091.00
2019-02-10T17:44:16.819Z,98099.00
2019-02-10T17:46:47.351Z,98100.00
2019-02-10T17:49:17.756Z,98119.00
2019-02-10T17:51:48.084Z,98109.00
2019-02-10T17:54:18.418Z,98116.00
2019-02-10T17:56:48.776Z,98115.00
2019-02-10T17:59:19.066Z,98123.00
2019-02-10T18:01:49.430Z,98138.00
2019-02-10T18:04:19.731Z,98140.00
2019-02-10T18:06:50.126Z,98150.00
2019-02-10T18:09:20.490Z,98156.00
2019-02-10T18:11:50.898Z,98144.00
2019-02-10T18:14:49.049Z,98162.00
2019-02-10T18:17:41.190Z,98160.00
2019-02-10T18:20:21.351Z,98179.00
2019-02-10T18:22:57.721Z,98182.00
2019-02-10T18:25:45.740Z,98169.00
2019-02-10T18:28:47.068Z,98180.00
2019-02-10T18:31:31.438Z,98184.00
2019-02-10T18:34:13.795Z,98182.00
2019-02-10T18:37:00.431Z,98182.00
2019-02-10T18:39:47.288Z,98192.00
2019-02-10T18:42:36.559Z,98194.00
2019-02-10T18:45:31.700Z,98189.00
2019-02-10T18:48:20.927Z,98201.00
2019-02-10T18:51:01.142Z,98188.00
2019-02-10T18:53:50.374Z,98198.00
2019-02-10T18:56:42.530Z,98199.00
2019-02-10T18:59:37.655Z,98187.00
2019-02-10T19:02:35.776Z,98198.00
2019-02-10T19:05:22.221Z,98192.00
2019-02-10T19:08:04.494Z,98198.00
2019-02-10T19:10:52.245Z,98188.00
2019-02-10T19:13:30.672Z,98191.00
2019-02-10T19:16:31.959Z,98202.00
2019-02-10T19:19:21.205Z,98213.00
2019-02-10T19:22:16.525Z,98219.00
2019-02-10T19:24:58.502Z,98204.00
2019-02-10T19:27:49.175Z,98213.00
2019-02-10T19:30:56.561Z,98220.00
2019-02-10T19:33:48.277Z,98220.00
2019-02-10T19:36:29.069Z,98222.00
2019-02-10T19:39:20.486Z,98225.00
2019-02-10T19:42:15.100Z,98219.00
2019-02-10T19:45:03.050Z,98237.00
2019-02-10T19:47:52.381Z,98243.00
2019-02-10T19:50:53.547Z,98231.00
2019-02-10T19:53:41.504Z,98251.00
2019-02-10T19:56:30.751Z,98268.00
2019-02-10T19:59:26.125Z,98274.00
2019-02-10T20:02:30.573Z,98262.00
2019-02-10T20:05:34.783Z,98287.00
2019-02-10T20:08:26.089Z,98284.00
2019-02-10T20:11:03.336Z,98300.00
2019-02-10T20:13:38.904Z,98312.00
2019-02-10T20:16:37.073Z,98319.00
2019-02-10T20:19:24.664Z,98315.00
2019-02-10T20:22:08.641Z,98317.00
2019-02-10T20:25:13.043Z,98323.00
2019-02-10T20:28:05.085Z,98341.00
2019-02-10T20:30:52.781Z,98335.00
2019-02-10T20:33:50.947Z,98337.00
2019-02-10T20:36:32.486Z,98356.00
2019-02-10T20:39:11.700Z,98360.00
2019-02-10T20:42:11.885Z,98356.00
2019-02-10T20:44:49.349Z,98362.00
2019-02-10T20:47:32.211Z,98371.00
2019-02-10T20:50:23.052Z,98387.00
2019-02-10T20:53:03.696Z,98390.00
2019-02-10T20:55:40.375Z,98414.00
2019-02-10T20:58:28.212Z,98413.00
2019-02-10T21:01:15.161Z,98438.00
2019-02-10T21:03:56.081Z,98436.00
2019-02-10T21:07:00.231Z,98451.00
2019-02-10T21:09:48.393Z,98435.00
2019-02-10T21:12:49.944Z,98441.00
2019-02-10T21:15:42.755Z,98443.00
2019-02-10T21:18:35.033Z,98468.00
2019-02-10T21:21:33.090Z,98480.00
2019-02-10T21:24:26.258Z,98484.00
2019-02-10T21:27:04.947Z,98488.00
2019-02-10T21:29:54.290Z,98509.00
2019-02-10T21:32:43.631Z,98515.00
2019-02-10T21:35:32.953Z,98524.00
2019-02-10T21:38:22.213Z,98544.00
2019-02-10T21:41:14.317Z,98545.00
2019-02-10T21:43:52.690Z,98562.00
2019-02-10T21:46:29.052Z,98565.00
2019-02-10T21:49:03.044Z,98570.00
2019-02-10T21:51:33.384Z,98579.00
2019-02-10T21:54:03.731Z,98588.00
2019-02-10T21:56:34.174Z,98597.00
2019-02-10T21:59:04.694Z,98591.00
2019-02-10T22:01:35.107Z,98600.00
2019-02-10T22:04:05.493Z,98600.00
2019-02-10T22:06:38.804Z,98616.00
2019-02-10T22:09:08.459Z,98611.00
2019-02-10T22:11:40.094Z,98604.00
2019-02-10T22:14:10.592Z,98617.00
2019-02-10T22:16:40.979Z,98619.00
2019-02-10T22:19:11.376Z,98638.00
2019-02-10T22:21:42.046Z,98647.00
2019-02-10T22:24:12.393Z,98650.00
2019-02-10T22:26:42.843Z,98648.00
2019-02-10T22:29:13.269Z,98643.00
2019-02-10T22:31:43.603Z,98660.00
2019-02-10T22:34:15.505Z,98660.00
2019-02-10T22:36:45.933Z,98665.00
2019-02-10T22:39:16.326Z,98678.00
2019-02-10T22:41:46.605Z,98682.00
2019-02-10T22:44:17.187Z,98687.00
2019-02-10T22:46:47.591Z,98696.00
2019-02-10T22:49:18.406Z,98714.00
2019-02-10T22:51:48.727Z,98714.00
2019-02-10T22:54:19.076Z,98734.00
2019-02-10T22:56:49.390Z,98742.00
2019-02-10T22:59:19.833Z,98743.00
2019-02-10T23:01:50.381Z,98746.00
2019-02-10T23:04:20.735Z,98747.00
2019-02-10T23:06:51.095Z,98760.00
2019-02-10T23:09:23.817Z,98767.00
2019-02-10T23:11:54.121Z,98788.00
2019-02-10T23:14:24.469Z,98795.00
2019-02-10T23:16:54.828Z,98804.00
2019-02-10T23:19:25.236Z,98810.00
2019-02-10T23:21:55.565Z,98816.00
2019-02-10T23:24:26.035Z,98831.00
2019-02-10T23:26:56.465Z,98832.00
2019-02-10T23:29:26.671Z,98850.00
2019-02-10T23:31:57.148Z,98849.00
2019-02-10T23:34:27.610Z,98857.00
2019-02-10T23:36:58.048Z,98870.00
2019-02-10T23:39:28.408Z,98873.00
2019-02-10T23:41:58.787Z,98887.00
2019-02-10T23:44:29.026Z,98886.00
2019-02-10T23:46:59.294Z,98887.00
2019-02-10T23:49:29.636Z,98900.00
2019-02-10T23:51:59.973Z,98914.00
2019-02-10T23:54:30.306Z,98919.00
2019-02-10T23:57:00.638Z,98924.00
2019-02-10T23:59:30.843Z,98936.00
